sensor_id;sensor_type;location;lat;lon;timestamp;P1;durP1;ratioP1;P2;durP2;ratioP2
14276;SDS011;7222;57.346;12.150;2022-08-21T00:00:57;2.60;;;1.40;;
14276;SDS011;7222;57.346;12.150;2022-08-21T00:03:26;4.03;;;1.53;;
14276;SDS011;7222;57.346;12.150;2022-08-21T00:05:53;1.60;;;1.43;;
14276;SDS011;7222;57.346;12.150;2022-08-21T00:08:21;2.97;;;1.70;;
14276;SDS011;7222;57.346;12.150;2022-08-21T00:10:48;1.60;;;1.50;;
14276;SDS011;7222;57.346;12.150;2022-08-21T00:13:16;1.70;;;1.60;;
14276;SDS011;7222;57.346;12.150;2022-08-21T00:15:45;1.90;;;1.50;;
14276;SDS011;7222;57.346;12.150;2022-08-21T00:18:13;2.23;;;1.60;;
14276;SDS011;7222;57.346;12.150;2022-08-21T00:20:41;3.53;;;1.40;;
14276;SDS011;7222;57.346;12.150;2022-08-21T00:23:09;1.83;;;1.20;;
14276;SDS011;7222;57.346;12.150;2022-08-21T00:25:37;2.03;;;1.67;;
14276;SDS011;7222;57.346;12.150;2022-08-21T00:28:05;1.77;;;1.60;;
14276;SDS011;7222;57.346;12.150;2022-08-21T00:30:32;2.50;;;1.27;;
14276;SDS011;7222;57.346;12.150;2022-08-21T00:33:00;1.83;;;1.63;;
14276;SDS011;7222;57.346;12.150;2022-08-21T00:35:29;1.90;;;1.43;;
14276;SDS011;7222;57.346;12.150;2022-08-21T00:37:58;1.73;;;1.53;;
14276;SDS011;7222;57.346;12.150;2022-08-21T00:40:26;2.57;;;1.40;;
14276;SDS011;7222;57.346;12.150;2022-08-21T00:42:57;3.33;;;1.70;;
14276;SDS011;7222;57.346;12.150;2022-08-21T00:45:25;1.93;;;1.50;;
14276;SDS011;7222;57.346;12.150;2022-08-21T00:47:53;2.27;;;1.67;;
14276;SDS011;7222;57.346;12.150;2022-08-21T00:50:21;1.50;;;1.40;;
14276;SDS011;7222;57.346;12.150;2022-08-21T00:52:51;3.07;;;1.60;;
14276;SDS011;7222;57.346;12.150;2022-08-21T00:55:19;1.50;;;1.40;;
14276;SDS011;7222;57.346;12.150;2022-08-21T00:57:49;1.83;;;1.37;;
14276;SDS011;7222;57.346;12.150;2022-08-21T01:00:22;2.73;;;1.50;;
14276;SDS011;7222;57.346;12.150;2022-08-21T01:02:52;2.70;;;1.60;;
14276;SDS011;7222;57.346;12.150;2022-08-21T01:05:20;1.67;;;1.57;;
14276;SDS011;7222;57.346;12.150;2022-08-21T01:07:47;1.70;;;1.60;;
14276;SDS011;7222;57.346;12.150;2022-08-21T01:10:14;1.67;;;1.50;;
14276;SDS011;7222;57.346;12.150;2022-08-21T01:12:42;2.70;;;1.43;;
14276;SDS011;7222;57.346;12.150;2022-08-21T01:15:10;4.63;;;1.70;;
14276;SDS011;7222;57.346;12.150;2022-08-21T01:17:41;2.83;;;1.50;;
14276;SDS011;7222;57.346;12.150;2022-08-21T01:20:10;3.23;;;1.90;;
14276;SDS011;7222;57.346;12.150;2022-08-21T01:22:39;2.30;;;1.67;;
14276;SDS011;7222;57.346;12.150;2022-08-21T01:25:07;1.77;;;1.67;;
14276;SDS011;7222;57.346;12.150;2022-08-21T01:27:35;2.33;;;1.80;;
14276;SDS011;7222;57.346;12.150;2022-08-21T01:30:04;2.07;;;1.60;;
14276;SDS011;7222;57.346;12.150;2022-08-21T01:32:36;1.40;;;1.30;;
14276;SDS011;7222;57.346;12.150;2022-08-21T01:35:03;1.77;;;1.50;;
14276;SDS011;7222;57.346;12.150;2022-08-21T01:37:31;2.07;;;1.63;;
14276;SDS011;7222;57.346;12.150;2022-08-21T01:40:00;1.50;;;1.40;;
14276;SDS011;7222;57.346;12.150;2022-08-21T01:42:28;2.03;;;1.50;;
14276;SDS011;7222;57.346;12.150;2022-08-21T01:44:56;2.10;;;1.37;;
14276;SDS011;7222;57.346;12.150;2022-08-21T01:47:23;1.90;;;1.70;;
14276;SDS011;7222;57.346;12.150;2022-08-21T01:49:50;1.50;;;1.40;;
14276;SDS011;7222;57.346;12.150;2022-08-21T01:52:17;1.77;;;1.50;;
14276;SDS011;7222;57.346;12.150;2022-08-21T01:54:44;2.80;;;1.50;;
14276;SDS011;7222;57.346;12.150;2022-08-21T01:57:13;3.33;;;1.60;;
14276;SDS011;7222;57.346;12.150;2022-08-21T01:59:40;2.43;;;1.60;;
14276;SDS011;7222;57.346;12.150;2022-08-21T02:02:07;2.53;;;1.60;;
14276;SDS011;7222;57.346;12.150;2022-08-21T02:04:34;1.53;;;1.30;;
14276;SDS011;7222;57.346;12.150;2022-08-21T02:07:01;2.13;;;1.40;;
14276;SDS011;7222;57.346;12.150;2022-08-21T02:09:29;3.13;;;1.60;;
14276;SDS011;7222;57.346;12.150;2022-08-21T02:11:56;1.47;;;1.37;;
14276;SDS011;7222;57.346;12.150;2022-08-21T02:14:25;1.60;;;1.50;;
14276;SDS011;7222;57.346;12.150;2022-08-21T02:16:51;1.50;;;1.40;;
14276;SDS011;7222;57.346;12.150;2022-08-21T02:19:18;1.87;;;1.60;;
14276;SDS011;7222;57.346;12.150;2022-08-21T02:21:45;2.83;;;1.57;;
14276;SDS011;7222;57.346;12.150;2022-08-21T02:24:12;2.97;;;1.60;;
14276;SDS011;7222;57.346;12.150;2022-08-21T02:26:39;1.57;;;1.47;;
14276;SDS011;7222;57.346;12.150;2022-08-21T02:29:07;2.93;;;1.47;;
14276;SDS011;7222;57.346;12.150;2022-08-21T02:31:35;2.50;;;1.63;;
14276;SDS011;7222;57.346;12.150;2022-08-21T02:34:02;2.47;;;1.80;;
14276;SDS011;7222;57.346;12.150;2022-08-21T02:36:29;2.10;;;1.57;;
14276;SDS011;7222;57.346;12.150;2022-08-21T02:38:57;1.83;;;1.50;;
14276;SDS011;7222;57.346;12.150;2022-08-21T02:41:24;2.03;;;1.40;;
14276;SDS011;7222;57.346;12.150;2022-08-21T02:43:51;1.30;;;1.20;;
14276;SDS011;7222;57.346;12.150;2022-08-21T02:46:19;2.03;;;1.47;;
14276;SDS011;7222;57.346;12.150;2022-08-21T02:48:47;3.13;;;1.60;;
14276;SDS011;7222;57.346;12.150;2022-08-21T02:51:15;2.10;;;1.63;;
14276;SDS011;7222;57.346;12.150;2022-08-21T02:53:45;2.50;;;1.80;;
14276;SDS011;7222;57.346;12.150;2022-08-21T02:56:14;1.67;;;1.57;;
14276;SDS011;7222;57.346;12.150;2022-08-21T02:58:43;1.70;;;1.40;;
14276;SDS011;7222;57.346;12.150;2022-08-21T03:01:12;2.43;;;1.67;;
14276;SDS011;7222;57.346;12.150;2022-08-21T03:03:40;2.60;;;1.40;;
14276;SDS011;7222;57.346;12.150;2022-08-21T03:06:10;2.27;;;1.50;;
14276;SDS011;7222;57.346;12.150;2022-08-21T03:08:39;2.87;;;1.70;;
14276;SDS011;7222;57.346;12.150;2022-08-21T03:11:06;1.90;;;1.60;;
14276;SDS011;7222;57.346;12.150;2022-08-21T03:13:34;3.60;;;1.60;;
14276;SDS011;7222;57.346;12.150;2022-08-21T03:16:01;1.73;;;1.43;;
14276;SDS011;7222;57.346;12.150;2022-08-21T03:18:28;1.93;;;1.73;;
14276;SDS011;7222;57.346;12.150;2022-08-21T03:20:55;4.60;;;1.80;;
14276;SDS011;7222;57.346;12.150;2022-08-21T03:23:23;3.07;;;1.60;;
14276;SDS011;7222;57.346;12.150;2022-08-21T03:25:50;1.93;;;1.53;;
14276;SDS011;7222;57.346;12.150;2022-08-21T03:28:18;1.73;;;1.63;;
14276;SDS011;7222;57.346;12.150;2022-08-21T03:30:48;2.17;;;1.60;;
14276;SDS011;7222;57.346;12.150;2022-08-21T03:33:17;2.47;;;1.60;;
14276;SDS011;7222;57.346;12.150;2022-08-21T03:35:45;1.97;;;1.77;;
14276;SDS011;7222;57.346;12.150;2022-08-21T03:38:14;1.50;;;1.40;;
14276;SDS011;7222;57.346;12.150;2022-08-21T03:40:42;1.93;;;1.70;;
14276;SDS011;7222;57.346;12.150;2022-08-21T03:43:09;1.77;;;1.67;;
14276;SDS011;7222;57.346;12.150;2022-08-21T03:45:37;3.90;;;1.70;;
14276;SDS011;7222;57.346;12.150;2022-08-21T03:48:05;2.47;;;1.70;;
14276;SDS011;7222;57.346;12.150;2022-08-21T03:50:34;1.83;;;1.63;;
14276;SDS011;7222;57.346;12.150;2022-08-21T03:53:03;2.37;;;1.80;;
14276;SDS011;7222;57.346;12.150;2022-08-21T03:55:31;1.83;;;1.63;;
14276;SDS011;7222;57.346;12.150;2022-08-21T03:57:59;2.27;;;1.70;;
14276;SDS011;7222;57.346;12.150;2022-08-21T04:00:26;2.63;;;2.07;;
14276;SDS011;7222;57.346;12.150;2022-08-21T04:02:53;2.60;;;1.40;;
14276;SDS011;7222;57.346;12.150;2022-08-21T04:05:20;2.63;;;1.87;;
14276;SDS011;7222;57.346;12.150;2022-08-21T04:07:56;1.70;;;1.60;;
14276;SDS011;7222;57.346;12.150;2022-08-21T04:10:24;2.47;;;1.77;;
14276;SDS011;7222;57.346;12.150;2022-08-21T04:12:53;1.53;;;1.40;;
14276;SDS011;7222;57.346;12.150;2022-08-21T04:15:23;2.90;;;1.80;;
14276;SDS011;7222;57.346;12.150;2022-08-21T04:17:51;2.93;;;2.00;;
14276;SDS011;7222;57.346;12.150;2022-08-21T04:20:18;1.73;;;1.63;;
14276;SDS011;7222;57.346;12.150;2022-08-21T04:22:46;2.87;;;2.00;;
14276;SDS011;7222;57.346;12.150;2022-08-21T04:25:15;2.27;;;1.90;;
14276;SDS011;7222;57.346;12.150;2022-08-21T04:27:43;2.23;;;1.70;;
14276;SDS011;7222;57.346;12.150;2022-08-21T04:30:11;1.73;;;1.63;;
14276;SDS011;7222;57.346;12.150;2022-08-21T04:32:43;2.93;;;1.70;;
14276;SDS011;7222;57.346;12.150;2022-08-21T04:35:10;2.23;;;1.67;;
14276;SDS011;7222;57.346;12.150;2022-08-21T04:37:38;1.80;;;1.40;;
14276;SDS011;7222;57.346;12.150;2022-08-21T04:40:05;1.63;;;1.30;;
14276;SDS011;7222;57.346;12.150;2022-08-21T04:42:40;2.53;;;1.43;;
14276;SDS011;7222;57.346;12.150;2022-08-21T04:45:08;2.00;;;1.80;;
14276;SDS011;7222;57.346;12.150;2022-08-21T04:47:35;2.13;;;1.50;;
14276;SDS011;7222;57.346;12.150;2022-08-21T04:50:04;1.50;;;1.40;;
14276;SDS011;7222;57.346;12.150;2022-08-21T04:52:32;1.70;;;1.60;;
14276;SDS011;7222;57.346;12.150;2022-08-21T04:54:59;2.00;;;1.90;;
14276;SDS011;7222;57.346;12.150;2022-08-21T04:57:27;1.73;;;1.63;;
14276;SDS011;7222;57.346;12.150;2022-08-21T04:59:54;2.63;;;1.80;;
14276;SDS011;7222;57.346;12.150;2022-08-21T05:02:21;1.97;;;1.87;;
14276;SDS011;7222;57.346;12.150;2022-08-21T05:04:48;2.03;;;1.80;;
14276;SDS011;7222;57.346;12.150;2022-08-21T05:07:20;3.33;;;2.07;;
14276;SDS011;7222;57.346;12.150;2022-08-21T05:09:49;2.97;;;2.07;;
14276;SDS011;7222;57.346;12.150;2022-08-21T05:12:17;2.10;;;1.60;;
14276;SDS011;7222;57.346;12.150;2022-08-21T05:14:44;2.23;;;2.00;;
14276;SDS011;7222;57.346;12.150;2022-08-21T05:17:12;2.90;;;2.60;;
14276;SDS011;7222;57.346;12.150;2022-08-21T05:19:39;2.70;;;2.50;;
14276;SDS011;7222;57.346;12.150;2022-08-21T05:22:06;3.37;;;2.23;;
14276;SDS011;7222;57.346;12.150;2022-08-21T05:24:35;3.47;;;2.87;;
14276;SDS011;7222;57.346;12.150;2022-08-21T05:27:03;4.10;;;2.80;;
14276;SDS011;7222;57.346;12.150;2022-08-21T05:29:32;3.00;;;2.60;;
14276;SDS011;7222;57.346;12.150;2022-08-21T05:31:59;4.33;;;3.50;;
14276;SDS011;7222;57.346;12.150;2022-08-21T05:34:26;6.80;;;3.83;;
14276;SDS011;7222;57.346;12.150;2022-08-21T05:36:53;5.43;;;4.30;;
14276;SDS011;7222;57.346;12.150;2022-08-21T05:39:20;6.00;;;3.70;;
14276;SDS011;7222;57.346;12.150;2022-08-21T05:41:48;5.97;;;4.60;;
14276;SDS011;7222;57.346;12.150;2022-08-21T05:44:15;6.80;;;4.57;;
14276;SDS011;7222;57.346;12.150;2022-08-21T05:46:42;12.00;;;6.43;;
14276;SDS011;7222;57.346;12.150;2022-08-21T05:49:10;9.13;;;5.57;;
14276;SDS011;7222;57.346;12.150;2022-08-21T05:51:39;9.23;;;5.47;;
14276;SDS011;7222;57.346;12.150;2022-08-21T05:54:06;7.77;;;5.87;;
14276;SDS011;7222;57.346;12.150;2022-08-21T05:56:33;9.17;;;6.17;;
14276;SDS011;7222;57.346;12.150;2022-08-21T05:59:01;9.07;;;6.33;;
14276;SDS011;7222;57.346;12.150;2022-08-21T06:01:28;8.90;;;6.00;;
14276;SDS011;7222;57.346;12.150;2022-08-21T06:03:55;8.20;;;6.10;;
14276;SDS011;7222;57.346;12.150;2022-08-21T06:06:22;8.50;;;6.37;;
14276;SDS011;7222;57.346;12.150;2022-08-21T06:08:49;9.63;;;6.60;;
14276;SDS011;7222;57.346;12.150;2022-08-21T06:11:17;10.47;;;6.40;;
14276;SDS011;7222;57.346;12.150;2022-08-21T06:13:44;9.83;;;6.50;;
14276;SDS011;7222;57.346;12.150;2022-08-21T06:16:13;6.87;;;6.00;;
14276;SDS011;7222;57.346;12.150;2022-08-21T06:18:43;13.80;;;5.70;;
14276;SDS011;7222;57.346;12.150;2022-08-21T06:21:13;6.77;;;5.43;;
14276;SDS011;7222;57.346;12.150;2022-08-21T06:23:41;7.67;;;4.87;;
14276;SDS011;7222;57.346;12.150;2022-08-21T06:26:09;8.13;;;4.83;;
14276;SDS011;7222;57.346;12.150;2022-08-21T06:28:38;7.80;;;4.80;;
14276;SDS011;7222;57.346;12.150;2022-08-21T06:31:09;8.97;;;4.10;;
14276;SDS011;7222;57.346;12.150;2022-08-21T06:33:39;7.80;;;4.40;;
14276;SDS011;7222;57.346;12.150;2022-08-21T06:36:07;7.47;;;4.60;;
14276;SDS011;7222;57.346;12.150;2022-08-21T06:38:34;4.20;;;3.70;;
14276;SDS011;7222;57.346;12.150;2022-08-21T06:41:02;4.53;;;3.70;;
14276;SDS011;7222;57.346;12.150;2022-08-21T06:43:29;7.53;;;4.00;;
14276;SDS011;7222;57.346;12.150;2022-08-21T06:45:56;4.93;;;3.70;;
14276;SDS011;7222;57.346;12.150;2022-08-21T06:48:25;5.57;;;3.50;;
14276;SDS011;7222;57.346;12.150;2022-08-21T06:50:52;5.97;;;3.30;;
14276;SDS011;7222;57.346;12.150;2022-08-21T06:53:19;7.37;;;3.83;;
14276;SDS011;7222;57.346;12.150;2022-08-21T06:55:47;6.23;;;3.33;;
14276;SDS011;7222;57.346;12.150;2022-08-21T06:58:14;8.23;;;3.23;;
14276;SDS011;7222;57.346;12.150;2022-08-21T07:00:42;6.23;;;3.70;;
14276;SDS011;7222;57.346;12.150;2022-08-21T07:03:16;4.67;;;3.30;;
14276;SDS011;7222;57.346;12.150;2022-08-21T07:05:46;5.43;;;3.60;;
14276;SDS011;7222;57.346;12.150;2022-08-21T07:08:13;5.03;;;3.43;;
14276;SDS011;7222;57.346;12.150;2022-08-21T07:10:40;6.77;;;3.43;;
14276;SDS011;7222;57.346;12.150;2022-08-21T07:13:08;4.83;;;3.10;;
14276;SDS011;7222;57.346;12.150;2022-08-21T07:15:35;7.47;;;3.30;;
14276;SDS011;7222;57.346;12.150;2022-08-21T07:18:02;5.97;;;2.97;;
14276;SDS011;7222;57.346;12.150;2022-08-21T07:20:29;2.73;;;2.37;;
14276;SDS011;7222;57.346;12.150;2022-08-21T07:22:59;6.37;;;2.87;;
14276;SDS011;7222;57.346;12.150;2022-08-21T07:25:28;4.90;;;2.30;;
14276;SDS011;7222;57.346;12.150;2022-08-21T07:27:55;6.70;;;2.60;;
14276;SDS011;7222;57.346;12.150;2022-08-21T07:30:22;4.97;;;2.70;;
14276;SDS011;7222;57.346;12.150;2022-08-21T07:32:50;5.80;;;2.77;;
14276;SDS011;7222;57.346;12.150;2022-08-21T07:35:17;5.03;;;2.67;;
14276;SDS011;7222;57.346;12.150;2022-08-21T07:37:45;4.30;;;2.40;;
14276;SDS011;7222;57.346;12.150;2022-08-21T07:40:14;3.90;;;2.30;;
14276;SDS011;7222;57.346;12.150;2022-08-21T07:42:42;3.20;;;2.20;;
14276;SDS011;7222;57.346;12.150;2022-08-21T07:45:11;6.17;;;2.20;;
14276;SDS011;7222;57.346;12.150;2022-08-21T07:47:38;7.07;;;2.47;;
14276;SDS011;7222;57.346;12.150;2022-08-21T07:50:05;3.97;;;2.27;;
14276;SDS011;7222;57.346;12.150;2022-08-21T07:52:33;8.20;;;2.37;;
14276;SDS011;7222;57.346;12.150;2022-08-21T07:55:00;6.50;;;2.53;;
14276;SDS011;7222;57.346;12.150;2022-08-21T07:57:29;5.10;;;2.67;;
14276;SDS011;7222;57.346;12.150;2022-08-21T07:59:56;7.13;;;2.50;;
14276;SDS011;7222;57.346;12.150;2022-08-21T08:02:23;3.50;;;2.13;;
14276;SDS011;7222;57.346;12.150;2022-08-21T08:04:51;3.73;;;1.93;;
14276;SDS011;7222;57.346;12.150;2022-08-21T08:07:18;6.63;;;2.73;;
14276;SDS011;7222;57.346;12.150;2022-08-21T08:09:45;4.40;;;1.97;;
14276;SDS011;7222;57.346;12.150;2022-08-21T08:12:12;3.60;;;2.03;;
14276;SDS011;7222;57.346;12.150;2022-08-21T08:14:41;2.90;;;2.20;;
14276;SDS011;7222;57.346;12.150;2022-08-21T08:17:08;4.00;;;1.90;;
14276;SDS011;7222;57.346;12.150;2022-08-21T08:19:35;4.57;;;2.60;;
14276;SDS011;7222;57.346;12.150;2022-08-21T08:22:11;4.00;;;2.47;;
14276;SDS011;7222;57.346;12.150;2022-08-21T08:24:40;4.57;;;2.10;;
14276;SDS011;7222;57.346;12.150;2022-08-21T08:27:07;2.10;;;1.80;;
14276;SDS011;7222;57.346;12.150;2022-08-21T08:29:34;3.03;;;1.80;;
14276;SDS011;7222;57.346;12.150;2022-08-21T08:32:04;3.47;;;1.90;;
14276;SDS011;7222;57.346;12.150;2022-08-21T08:34:32;4.40;;;2.07;;
14276;SDS011;7222;57.346;12.150;2022-08-21T08:36:59;5.23;;;2.17;;
14276;SDS011;7222;57.346;12.150;2022-08-21T08:39:26;5.17;;;2.07;;
14276;SDS011;7222;57.346;12.150;2022-08-21T08:41:54;5.93;;;2.00;;
14276;SDS011;7222;57.346;12.150;2022-08-21T08:44:27;4.47;;;2.13;;
14276;SDS011;7222;57.346;12.150;2022-08-21T08:46:54;4.90;;;2.17;;
14276;SDS011;7222;57.346;12.150;2022-08-21T08:49:29;3.83;;;2.00;;
14276;SDS011;7222;57.346;12.150;2022-08-21T08:52:02;4.90;;;1.83;;
14276;SDS011;7222;57.346;12.150;2022-08-21T08:54:33;6.10;;;2.10;;
14276;SDS011;7222;57.346;12.150;2022-08-21T08:57:07;4.23;;;2.07;;
14276;SDS011;7222;57.346;12.150;2022-08-21T08:59:38;4.27;;;1.80;;
14276;SDS011;7222;57.346;12.150;2022-08-21T09:02:07;3.60;;;2.20;;
14276;SDS011;7222;57.346;12.150;2022-08-21T09:04:39;3.97;;;1.90;;
14276;SDS011;7222;57.346;12.150;2022-08-21T09:07:09;4.00;;;2.10;;
14276;SDS011;7222;57.346;12.150;2022-08-21T09:09:49;4.70;;;2.20;;
14276;SDS011;7222;57.346;12.150;2022-08-21T09:12:34;5.63;;;2.13;;
14276;SDS011;7222;57.346;12.150;2022-08-21T09:15:10;5.63;;;2.00;;
14276;SDS011;7222;57.346;12.150;2022-08-21T09:17:59;5.73;;;2.27;;
14276;SDS011;7222;57.346;12.150;2022-08-21T09:20:39;3.60;;;1.87;;
14276;SDS011;7222;57.346;12.150;2022-08-21T09:23:18;5.23;;;2.03;;
14276;SDS011;7222;57.346;12.150;2022-08-21T09:25:53;2.77;;;1.90;;
14276;SDS011;7222;57.346;12.150;2022-08-21T09:28:26;4.67;;;2.10;;
14276;SDS011;7222;57.346;12.150;2022-08-21T09:30:59;3.50;;;1.97;;
14276;SDS011;7222;57.346;12.150;2022-08-21T09:33:28;4.17;;;2.10;;
14276;SDS011;7222;57.346;12.150;2022-08-21T09:35:56;5.30;;;1.83;;
14276;SDS011;7222;57.346;12.150;2022-08-21T09:38:25;5.37;;;2.23;;
14276;SDS011;7222;57.346;12.150;2022-08-21T09:40:58;6.40;;;2.27;;
14276;SDS011;7222;57.346;12.150;2022-08-21T09:43:26;4.30;;;2.27;;
14276;SDS011;7222;57.346;12.150;2022-08-21T09:46:05;6.93;;;2.37;;
14276;SDS011;7222;57.346;12.150;2022-08-21T09:48:39;3.17;;;1.73;;
14276;SDS011;7222;57.346;12.150;2022-08-21T09:51:11;4.70;;;2.10;;
14276;SDS011;7222;57.346;12.150;2022-08-21T09:53:41;3.20;;;1.97;;
14276;SDS011;7222;57.346;12.150;2022-08-21T09:56:22;3.50;;;2.13;;
14276;SDS011;7222;57.346;12.150;2022-08-21T09:59:14;4.03;;;1.70;;
14276;SDS011;7222;57.346;12.150;2022-08-21T10:01:45;4.10;;;2.00;;
14276;SDS011;7222;57.346;12.150;2022-08-21T10:04:14;4.77;;;2.07;;
14276;SDS011;7222;57.346;12.150;2022-08-21T10:06:42;3.13;;;1.60;;
14276;SDS011;7222;57.346;12.150;2022-08-21T10:09:11;2.60;;;1.60;;
14276;SDS011;7222;57.346;12.150;2022-08-21T10:11:40;2.57;;;1.90;;
14276;SDS011;7222;57.346;12.150;2022-08-21T10:14:15;3.47;;;1.87;;
14276;SDS011;7222;57.346;12.150;2022-08-21T10:16:52;3.80;;;2.00;;
14276;SDS011;7222;57.346;12.150;2022-08-21T10:19:32;3.33;;;2.00;;
14276;SDS011;7222;57.346;12.150;2022-08-21T10:22:09;3.93;;;1.90;;
14276;SDS011;7222;57.346;12.150;2022-08-21T10:24:48;6.80;;;2.33;;
14276;SDS011;7222;57.346;12.150;2022-08-21T10:27:22;6.27;;;2.07;;
14276;SDS011;7222;57.346;12.150;2022-08-21T10:29:59;3.47;;;1.60;;
14276;SDS011;7222;57.346;12.150;2022-08-21T10:32:34;5.03;;;1.80;;
14276;SDS011;7222;57.346;12.150;2022-08-21T10:35:29;4.10;;;2.17;;
14276;SDS011;7222;57.346;12.150;2022-08-21T10:38:17;3.27;;;1.80;;
14276;SDS011;7222;57.346;12.150;2022-08-21T10:41:12;3.20;;;1.87;;
14276;SDS011;7222;57.346;12.150;2022-08-21T10:43:45;5.93;;;1.73;;
14276;SDS011;7222;57.346;12.150;2022-08-21T10:46:24;4.77;;;1.70;;
14276;SDS011;7222;57.346;12.150;2022-08-21T10:49:03;3.97;;;1.80;;
14276;SDS011;7222;57.346;12.150;2022-08-21T10:51:40;3.50;;;1.60;;
14276;SDS011;7222;57.346;12.150;2022-08-21T10:54:21;5.10;;;1.80;;
14276;SDS011;7222;57.346;12.150;2022-08-21T10:56:56;3.10;;;1.60;;
14276;SDS011;7222;57.346;12.150;2022-08-21T10:59:28;5.23;;;2.03;;
14276;SDS011;7222;57.346;12.150;2022-08-21T11:02:00;3.47;;;2.00;;
14276;SDS011;7222;57.346;12.150;2022-08-21T11:04:37;3.77;;;1.93;;
14276;SDS011;7222;57.346;12.150;2022-08-21T11:07:10;2.53;;;1.67;;
14276;SDS011;7222;57.346;12.150;2022-08-21T11:09:43;2.80;;;1.70;;
14276;SDS011;7222;57.346;12.150;2022-08-21T11:12:17;2.17;;;1.90;;
14276;SDS011;7222;57.346;12.150;2022-08-21T11:14:51;3.20;;;1.47;;
14276;SDS011;7222;57.346;12.150;2022-08-21T11:17:24;2.63;;;1.90;;
14276;SDS011;7222;57.346;12.150;2022-08-21T11:19:59;4.97;;;1.67;;
14276;SDS011;7222;57.346;12.150;2022-08-21T11:22:33;2.27;;;1.70;;
14276;SDS011;7222;57.346;12.150;2022-08-21T11:25:08;3.43;;;1.90;;
14276;SDS011;7222;57.346;12.150;2022-08-21T11:27:41;4.27;;;1.80;;
14276;SDS011;7222;57.346;12.150;2022-08-21T11:30:11;3.30;;;1.70;;
14276;SDS011;7222;57.346;12.150;2022-08-21T11:32:44;3.30;;;1.77;;
14276;SDS011;7222;57.346;12.150;2022-08-21T11:35:29;4.27;;;1.60;;
14276;SDS011;7222;57.346;12.150;2022-08-21T11:38:14;2.13;;;1.60;;
14276;SDS011;7222;57.346;12.150;2022-08-21T11:41:00;4.33;;;1.83;;
14276;SDS011;7222;57.346;12.150;2022-08-21T11:43:36;3.03;;;1.67;;
14276;SDS011;7222;57.346;12.150;2022-08-21T11:46:10;2.80;;;1.60;;
14276;SDS011;7222;57.346;12.150;2022-08-21T11:48:44;3.23;;;1.87;;
14276;SDS011;7222;57.346;12.150;2022-08-21T11:54:03;3.80;;;2.37;;
14276;SDS011;7222;57.346;12.150;2022-08-21T11:56:37;2.07;;;1.67;;
14276;SDS011;7222;57.346;12.150;2022-08-21T11:59:09;4.13;;;2.07;;
14276;SDS011;7222;57.346;12.150;2022-08-21T12:01:40;4.90;;;2.23;;
14276;SDS011;7222;57.346;12.150;2022-08-21T12:04:16;3.80;;;2.07;;
14276;SDS011;7222;57.346;12.150;2022-08-21T12:06:47;4.93;;;2.50;;
14276;SDS011;7222;57.346;12.150;2022-08-21T12:09:28;3.73;;;2.37;;
14276;SDS011;7222;57.346;12.150;2022-08-21T12:12:02;2.83;;;1.80;;
14276;SDS011;7222;57.346;12.150;2022-08-21T12:14:36;2.80;;;2.10;;
14276;SDS011;7222;57.346;12.150;2022-08-21T12:17:06;4.73;;;2.17;;
14276;SDS011;7222;57.346;12.150;2022-08-21T12:19:34;3.80;;;1.93;;
14276;SDS011;7222;57.346;12.150;2022-08-21T12:22:07;2.73;;;1.80;;
14276;SDS011;7222;57.346;12.150;2022-08-21T12:24:37;5.27;;;2.07;;
14276;SDS011;7222;57.346;12.150;2022-08-21T12:27:19;2.80;;;1.80;;
14276;SDS011;7222;57.346;12.150;2022-08-21T12:29:51;2.83;;;1.90;;
14276;SDS011;7222;57.346;12.150;2022-08-21T12:32:23;3.53;;;1.80;;
14276;SDS011;7222;57.346;12.150;2022-08-21T12:34:53;5.13;;;2.60;;
14276;SDS011;7222;57.346;12.150;2022-08-21T12:37:25;4.53;;;2.33;;
14276;SDS011;7222;57.346;12.150;2022-08-21T12:39:58;4.83;;;2.20;;
14276;SDS011;7222;57.346;12.150;2022-08-21T12:42:31;3.97;;;1.90;;
14276;SDS011;7222;57.346;12.150;2022-08-21T12:45:07;5.23;;;2.20;;
14276;SDS011;7222;57.346;12.150;2022-08-21T12:47:43;6.30;;;2.37;;
14276;SDS011;7222;57.346;12.150;2022-08-21T12:50:16;5.27;;;2.30;;
14276;SDS011;7222;57.346;12.150;2022-08-21T12:52:48;5.40;;;2.20;;
14276;SDS011;7222;57.346;12.150;2022-08-21T12:55:25;5.53;;;2.30;;
14276;SDS011;7222;57.346;12.150;2022-08-21T12:57:55;4.10;;;2.37;;
14276;SDS011;7222;57.346;12.150;2022-08-21T13:00:24;5.67;;;2.10;;
14276;SDS011;7222;57.346;12.150;2022-08-21T13:02:52;5.03;;;2.07;;
14276;SDS011;7222;57.346;12.150;2022-08-21T13:05:24;4.37;;;2.30;;
14276;SDS011;7222;57.346;12.150;2022-08-21T13:07:55;5.17;;;2.33;;
14276;SDS011;7222;57.346;12.150;2022-08-21T13:10:23;5.63;;;2.17;;
14276;SDS011;7222;57.346;12.150;2022-08-21T13:12:53;5.80;;;2.23;;
14276;SDS011;7222;57.346;12.150;2022-08-21T13:15:24;5.97;;;2.47;;
14276;SDS011;7222;57.346;12.150;2022-08-21T13:17:54;5.13;;;2.50;;
14276;SDS011;7222;57.346;12.150;2022-08-21T13:20:27;5.20;;;2.53;;
14276;SDS011;7222;57.346;12.150;2022-08-21T13:22:56;4.47;;;2.37;;
14276;SDS011;7222;57.346;12.150;2022-08-21T13:25:25;5.60;;;2.60;;
14276;SDS011;7222;57.346;12.150;2022-08-21T13:27:59;6.37;;;2.63;;
14276;SDS011;7222;57.346;12.150;2022-08-21T13:30:27;8.37;;;3.03;;
14276;SDS011;7222;57.346;12.150;2022-08-21T13:32:56;8.53;;;3.00;;
14276;SDS011;7222;57.346;12.150;2022-08-21T13:35:26;6.47;;;2.63;;
14276;SDS011;7222;57.346;12.150;2022-08-21T13:37:56;9.17;;;2.80;;
14276;SDS011;7222;57.346;12.150;2022-08-21T13:40:25;7.77;;;3.10;;
14276;SDS011;7222;57.346;12.150;2022-08-21T13:42:55;5.80;;;2.70;;
14276;SDS011;7222;57.346;12.150;2022-08-21T13:45:25;6.20;;;2.80;;
14276;SDS011;7222;57.346;12.150;2022-08-21T13:47:57;6.90;;;2.90;;
14276;SDS011;7222;57.346;12.150;2022-08-21T13:50:27;4.47;;;2.30;;
14276;SDS011;7222;57.346;12.150;2022-08-21T13:52:56;4.87;;;2.30;;
14276;SDS011;7222;57.346;12.150;2022-08-21T13:55:33;6.07;;;2.73;;
14276;SDS011;7222;57.346;12.150;2022-08-21T13:58:02;3.93;;;2.40;;
14276;SDS011;7222;57.346;12.150;2022-08-21T14:00:32;5.83;;;2.30;;
14276;SDS011;7222;57.346;12.150;2022-08-21T14:03:04;4.47;;;1.93;;
14276;SDS011;7222;57.346;12.150;2022-08-21T14:05:33;7.20;;;2.50;;
14276;SDS011;7222;57.346;12.150;2022-08-21T14:08:03;4.63;;;2.63;;
14276;SDS011;7222;57.346;12.150;2022-08-21T14:10:34;5.37;;;2.57;;
14276;SDS011;7222;57.346;12.150;2022-08-21T14:13:07;3.57;;;2.00;;
14276;SDS011;7222;57.346;12.150;2022-08-21T14:15:55;4.63;;;2.00;;
14276;SDS011;7222;57.346;12.150;2022-08-21T14:18:24;5.07;;;2.10;;
14276;SDS011;7222;57.346;12.150;2022-08-21T14:20:51;6.27;;;2.53;;
14276;SDS011;7222;57.346;12.150;2022-08-21T14:23:29;5.57;;;1.97;;
14276;SDS011;7222;57.346;12.150;2022-08-21T14:25:58;3.60;;;1.97;;
14276;SDS011;7222;57.346;12.150;2022-08-21T14:28:28;4.37;;;2.00;;
14276;SDS011;7222;57.346;12.150;2022-08-21T14:30:59;7.07;;;2.57;;
14276;SDS011;7222;57.346;12.150;2022-08-21T14:33:38;8.23;;;2.77;;
14276;SDS011;7222;57.346;12.150;2022-08-21T14:36:06;6.60;;;2.40;;
14276;SDS011;7222;57.346;12.150;2022-08-21T14:38:34;8.17;;;2.63;;
14276;SDS011;7222;57.346;12.150;2022-08-21T14:41:04;6.40;;;2.43;;
14276;SDS011;7222;57.346;12.150;2022-08-21T14:43:42;4.53;;;2.50;;
14276;SDS011;7222;57.346;12.150;2022-08-21T14:46:11;4.17;;;2.23;;
14276;SDS011;7222;57.346;12.150;2022-08-21T14:48:39;5.23;;;2.07;;
14276;SDS011;7222;57.346;12.150;2022-08-21T14:51:06;5.00;;;2.13;;
14276;SDS011;7222;57.346;12.150;2022-08-21T14:53:33;3.67;;;2.07;;
14276;SDS011;7222;57.346;12.150;2022-08-21T14:56:00;3.37;;;2.30;;
14276;SDS011;7222;57.346;12.150;2022-08-21T14:58:33;3.67;;;2.20;;
14276;SDS011;7222;57.346;12.150;2022-08-21T15:01:02;6.40;;;2.10;;
14276;SDS011;7222;57.346;12.150;2022-08-21T15:03:32;4.87;;;2.47;;
14276;SDS011;7222;57.346;12.150;2022-08-21T15:06:02;4.37;;;2.27;;
14276;SDS011;7222;57.346;12.150;2022-08-21T15:08:30;3.57;;;1.83;;